sensor_id;sensor_type;location;lat;lon;timestamp;temperature;humidity
11656;DHT22;5884;43.618;1.438;2022-10-28T04:47:41;19.30;99.90
11656;DHT22;5884;43.618;1.438;2022-10-28T04:50:09;19.30;99.90
11656;DHT22;5884;43.618;1.438;2022-10-28T04:52:36;19.30;99.90
11656;DHT22;5884;43.618;1.438;2022-10-28T04:55:04;19.30;99.90
11656;DHT22;5884;43.618;1.438;2022-10-28T04:57:31;19.20;99.90
11656;DHT22;5884;43.618;1.438;2022-10-28T04:59:58;19.20;99.90
11656;DHT22;5884;43.618;1.438;2022-10-28T05:02:26;19.20;99.90
11656;DHT22;5884;43.618;1.438;2022-10-28T05:04:54;19.20;99.90
11656;DHT22;5884;43.618;1.438;2022-10-28T05:07:25;19.10;99.90
11656;DHT22;5884;43.618;1.438;2022-10-28T05:09:52;19.10;99.90
11656;DHT22;5884;43.618;1.438;2022-10-28T05:12:19;19.10;99.90
11656;DHT22;5884;43.618;1.438;2022-10-28T05:14:47;19.10;99.90
11656;DHT22;5884;43.618;1.438;2022-10-28T05:17:14;19.10;99.90
11656;DHT22;5884;43.618;1.438;2022-10-28T05:19:41;19.10;99.90
11656;DHT22;5884;43.618;1.438;2022-10-28T05:22:11;19.10;99.90
11656;DHT22;5884;43.618;1.438;2022-10-28T05:24:38;19.10;99.90
11656;DHT22;5884;43.618;1.438;2022-10-28T05:27:05;19.10;99.90
11656;DHT22;5884;43.618;1.438;2022-10-28T05:29:32;19.10;99.90
11656;DHT22;5884;43.618;1.438;2022-10-28T05:32:00;19.10;99.90
11656;DHT22;5884;43.618;1.438;2022-10-28T05:34:27;19.10;99.90
11656;DHT22;5884;43.618;1.438;2022-10-28T05:36:54;19.10;99.90
11656;DHT22;5884;43.618;1.438;2022-10-28T05:39:23;19.10;99.90
11656;DHT22;5884;43.618;1.438;2022-10-28T05:41:50;19.10;99.90
11656;DHT22;5884;43.618;1.438;2022-10-28T05:44:17;19.10;99.90
11656;DHT22;5884;43.618;1.438;2022-10-28T05:46:44;19.00;99.90
11656;DHT22;5884;43.618;1.438;2022-10-28T05:49:11;19.00;99.90
11656;DHT22;5884;43.618;1.438;2022-10-28T05:51:38;19.00;99.90
11656;DHT22;5884;43.618;1.438;2022-10-28T05:54:06;19.00;99.90
11656;DHT22;5884;43.618;1.438;2022-10-28T05:56:35;19.00;99.90
11656;DHT22;5884;43.618;1.438;2022-10-28T05:59:02;19.00;99.90
11656;DHT22;5884;43.618;1.438;2022-10-28T06:01:29;19.00;99.90
11656;DHT22;5884;43.618;1.438;2022-10-28T06:03:56;19.00;99.90
11656;DHT22;5884;43.618;1.438;2022-10-28T06:06:24;19.00;99.90
11656;DHT22;5884;43.618;1.438;2022-10-28T06:08:51;19.00;99.90
11656;DHT22;5884;43.618;1.438;2022-10-28T06:11:18;18.90;99.90
11656;DHT22;5884;43.618;1.438;2022-10-28T06:13:47;19.00;99.90
11656;DHT22;5884;43.618;1.438;2022-10-28T06:16:14;19.00;99.90
11656;DHT22;5884;43.618;1.438;2022-10-28T06:18:41;19.00;99.90
11656;DHT22;5884;43.618;1.438;2022-10-28T06:21:09;19.10;99.90
11656;DHT22;5884;43.618;1.438;2022-10-28T06:23:36;19.00;99.90
11656;DHT22;5884;43.618;1.438;2022-10-28T06:26:04;19.00;99.90
11656;DHT22;5884;43.618;1.438;2022-10-28T06:28:31;19.00;99.90
11656;DHT22;5884;43.618;1.438;2022-10-28T06:31:04;19.00;99.90
11656;DHT22;5884;43.618;1.438;2022-10-28T06:33:32;19.00;99.90
11656;DHT22;5884;43.618;1.438;2022-10-28T06:35:59;19.00;99.90
11656;DHT22;5884;43.618;1.438;2022-10-28T06:38:28;19.00;99.90
11656;DHT22;5884;43.618;1.438;2022-10-28T06:40:56;19.00;99.90
11656;DHT22;5884;43.618;1.438;2022-10-28T06:43:25;19.00;99.90
11656;DHT22;5884;43.618;1.438;2022-10-28T06:45:52;19.10;99.90
11656;DHT22;5884;43.618;1.438;2022-10-28T06:48:23;19.00;99.90
11656;DHT22;5884;43.618;1.438;2022-10-28T06:50:50;19.00;99.90
11656;DHT22;5884;43.618;1.438;2022-10-28T06:53:20;19.10;99.90
11656;DHT22;5884;43.618;1.438;2022-10-28T06:55:51;19.00;99.90
11656;DHT22;5884;43.618;1.438;2022-10-28T06:58:19;19.10;99.90
11656;DHT22;5884;43.618;1.438;2022-10-28T07:00:46;19.10;99.90
11656;DHT22;5884;43.618;1.438;2022-10-28T07:03:13;19.10;99.90
11656;DHT22;5884;43.618;1.438;2022-10-28T07:05:42;19.10;99.90
11656;DHT22;5884;43.618;1.438;2022-10-28T07:08:09;19.10;99.90
11656;DHT22;5884;43.618;1.438;2022-10-28T07:10:36;19.10;99.90
11656;DHT22;5884;43.618;1.438;2022-10-28T07:13:04;19.10;99.90
11656;DHT22;5884;43.618;1.438;2022-10-28T07:15:31;19.10;99.90
11656;DHT22;5884;43.618;1.438;2022-10-28T07:17:59;19.10;99.90
11656;DHT22;5884;43.618;1.438;2022-10-28T07:20:27;19.10;99.90
11656;DHT22;5884;43.618;1.438;2022-10-28T07:22:59;19.10;99.90
11656;DHT22;5884;43.618;1.438;2022-10-28T07:25:29;19.10;99.90
11656;DHT22;5884;43.618;1.438;2022-10-28T07:27:56;19.10;99.90
11656;DHT22;5884;43.618;1.438;2022-10-28T07:30:24;19.10;99.90
11656;DHT22;5884;43.618;1.438;2022-10-28T07:32:51;19.10;99.90
11656;DHT22;5884;43.618;1.438;2022-10-28T07:35:18;19.10;99.90
11656;DHT22;5884;43.618;1.438;2022-10-28T07:37:46;19.10;99.90
11656;DHT22;5884;43.618;1.438;2022-10-28T07:40:15;19.10;99.90
11656;DHT22;5884;43.618;1.438;2022-10-28T07:42:42;19.20;99.90
11656;DHT22;5884;43.618;1.438;2022-10-28T07:45:09;19.10;99.90
11656;DHT22;5884;43.618;1.438;2022-10-28T07:47:36;19.20;99.90
11656;DHT22;5884;43.618;1.438;2022-10-28T07:50:05;19.20;99.90
11656;DHT22;5884;43.618;1.438;2022-10-28T07:52:33;19.30;99.90
11656;DHT22;5884;43.618;1.438;2022-10-28T07:55:01;19.30;99.90
11656;DHT22;5884;43.618;1.438;2022-10-28T07:57:29;19.40;99.90
11656;DHT22;5884;43.618;1.438;2022-10-28T07:59:56;19.40;99.90
11656;DHT22;5884;43.618;1.438;2022-10-28T08:02:24;19.40;99.90
11656;DHT22;5884;43.618;1.438;2022-10-28T08:04:51;19.40;99.90
11656;DHT22;5884;43.618;1.438;2022-10-28T08:07:21;19.50;99.90
11656;DHT22;5884;43.618;1.438;2022-10-28T08:09:48;19.50;99.90
11656;DHT22;5884;43.618;1.438;2022-10-28T08:12:17;19.60;99.90
11656;DHT22;5884;43.618;1.438;2022-10-28T08:14:46;19.70;99.90
11656;DHT22;5884;43.618;1.438;2022-10-28T08:17:13;19.70;99.90
11656;DHT22;5884;43.618;1.438;2022-10-28T08:19:41;19.80;99.90
11656;DHT22;5884;43.618;1.438;2022-10-28T08:22:08;19.80;99.90
11656;DHT22;5884;43.618;1.438;2022-10-28T08:24:35;19.90;99.90
11656;DHT22;5884;43.618;1.438;2022-10-28T08:27:03;19.90;99.90
11656;DHT22;5884;43.618;1.438;2022-10-28T08:29:30;19.90;99.90
11656;DHT22;5884;43.618;1.438;2022-10-28T08:31:59;19.90;99.90
11656;DHT22;5884;43.618;1.438;2022-10-28T08:34:26;20.00;99.90
11656;DHT22;5884;43.618;1.438;2022-10-28T08:36:56;20.00;99.90
11656;DHT22;5884;43.618;1.438;2022-10-28T08:39:23;20.10;99.90
11656;DHT22;5884;43.618;1.438;2022-10-28T08:41:56;20.10;99.90
11656;DHT22;5884;43.618;1.438;2022-10-28T08:47:48;20.20;99.90
11656;DHT22;5884;43.618;1.438;2022-10-28T08:50:24;20.30;99.90
11656;DHT22;5884;43.618;1.438;2022-10-28T08:52:58;20.30;99.90
11656;DHT22;5884;43.618;1.438;2022-10-28T08:55:30;20.30;99.90
11656;DHT22;5884;43.618;1.438;2022-10-28T08:58:03;20.40;99.90
11656;DHT22;5884;43.618;1.438;2022-10-28T09:00:34;20.40;99.90
11656;DHT22;5884;43.618;1.438;2022-10-28T09:03:15;20.40;99.90
11656;DHT22;5884;43.618;1.438;2022-10-28T09:05:46;20.40;99.90
11656;DHT22;5884;43.618;1.438;2022-10-28T09:08:21;20.40;99.90
11656;DHT22;5884;43.618;1.438;2022-10-28T09:11:05;20.50;99.90
11656;DHT22;5884;43.618;1.438;2022-10-28T09:13:53;20.50;99.90
11656;DHT22;5884;43.618;1.438;2022-10-28T09:16:40;20.60;99.90
11656;DHT22;5884;43.618;1.438;2022-10-28T09:19:34;20.70;99.90
11656;DHT22;5884;43.618;1.438;2022-10-28T09:22:16;20.80;99.90
11656;DHT22;5884;43.618;1.438;2022-10-28T09:24:52;20.90;99.90
11656;DHT22;5884;43.618;1.438;2022-10-28T09:27:40;21.00;99.90
11656;DHT22;5884;43.618;1.438;2022-10-28T09:30:22;21.00;99.90
11656;DHT22;5884;43.618;1.438;2022-10-28T09:33:02;21.10;99.90
11656;DHT22;5884;43.618;1.438;2022-10-28T09:35:40;21.20;99.90
11656;DHT22;5884;43.618;1.438;2022-10-28T09:38:15;21.20;99.90
11656;DHT22;5884;43.618;1.438;2022-10-28T09:40:51;21.20;99.90
11656;DHT22;5884;43.618;1.438;2022-10-28T09:43:25;21.20;99.90
11656;DHT22;5884;43.618;1.438;2022-10-28T09:45:57;21.20;99.90
11656;DHT22;5884;43.618;1.438;2022-10-28T09:48:29;21.30;99.90
11656;DHT22;5884;43.618;1.438;2022-10-28T09:50:59;21.30;99.90
11656;DHT22;5884;43.618;1.438;2022-10-28T09:53:34;21.30;99.90
11656;DHT22;5884;43.618;1.438;2022-10-28T09:56:05;21.40;99.90
11656;DHT22;5884;43.618;1.438;2022-10-28T09:58:33;21.40;99.90
11656;DHT22;5884;43.618;1.438;2022-10-28T10:01:01;21.40;99.90
11656;DHT22;5884;43.618;1.438;2022-10-28T10:03:29;21.50;99.90
11656;DHT22;5884;43.618;1.438;2022-10-28T10:06:01;21.50;99.90
11656;DHT22;5884;43.618;1.438;2022-10-28T10:08:34;21.40;99.90
11656;DHT22;5884;43.618;1.438;2022-10-28T10:11:05;21.50;99.90
11656;DHT22;5884;43.618;1.438;2022-10-28T10:13:38;21.50;99.90
11656;DHT22;5884;43.618;1.438;2022-10-28T10:16:13;21.50;99.90
11656;DHT22;5884;43.618;1.438;2022-10-28T10:18:44;21.60;99.90
11656;DHT22;5884;43.618;1.438;2022-10-28T10:21:15;21.60;99.90
11656;DHT22;5884;43.618;1.438;2022-10-28T10:23:44;21.60;99.90
11656;DHT22;5884;43.618;1.438;2022-10-28T10:26:13;21.60;99.90
11656;DHT22;5884;43.618;1.438;2022-10-28T10:28:44;21.70;99.90
11656;DHT22;5884;43.618;1.438;2022-10-28T10:31:18;21.70;99.90
11656;DHT22;5884;43.618;1.438;2022-10-28T10:33:48;21.70;99.90
11656;DHT22;5884;43.618;1.438;2022-10-28T10:36:19;21.70;99.90
11656;DHT22;5884;43.618;1.438;2022-10-28T10:38:51;21.60;99.90
11656;DHT22;5884;43.618;1.438;2022-10-28T10:41:33;21.70;99.90
11656;DHT22;5884;43.618;1.438;2022-10-28T10:44:01;21.60;99.90
11656;DHT22;5884;43.618;1.438;2022-10-28T10:46:28;21.60;99.90
11656;DHT22;5884;43.618;1.438;2022-10-28T10:49:09;21.60;99.90
11656;DHT22;5884;43.618;1.438;2022-10-28T10:51:42;21.60;99.90
11656;DHT22;5884;43.618;1.438;2022-10-28T10:54:16;21.70;99.90
11656;DHT22;5884;43.618;1.438;2022-10-28T10:56:44;21.70;99.90
11656;DHT22;5884;43.618;1.438;2022-10-28T10:59:23;21.90;99.90
11656;DHT22;5884;43.618;1.438;2022-10-28T11:01:53;22.00;99.90
11656;DHT22;5884;43.618;1.438;2022-10-28T11:04:22;22.10;99.90
11656;DHT22;5884;43.618;1.438;2022-10-28T11:06:54;22.20;99.90
11656;DHT22;5884;43.618;1.438;2022-10-28T11:09:27;22.30;99.90
11656;DHT22;5884;43.618;1.438;2022-10-28T11:11:57;22.40;99.90
11656;DHT22;5884;43.618;1.438;2022-10-28T11:14:25;22.40;99.90
11656;DHT22;5884;43.618;1.438;2022-10-28T11:16:55;22.40;99.90
11656;DHT22;5884;43.618;1.438;2022-10-28T11:19:27;22.40;99.90
11656;DHT22;5884;43.618;1.438;2022-10-28T11:22:14;22.40;99.90
11656;DHT22;5884;43.618;1.438;2022-10-28T11:28:00;22.60;99.90
11656;DHT22;5884;43.618;1.438;2022-10-28T11:30:44;22.70;99.90
11656;DHT22;5884;43.618;1.438;2022-10-28T11:33:17;22.70;99.90
11656;DHT22;5884;43.618;1.438;2022-10-28T11:35:55;22.70;99.90
11656;DHT22;5884;43.618;1.438;2022-10-28T11:38:47;22.60;99.90
11656;DHT22;5884;43.618;1.438;2022-10-28T11:41:31;22.80;99.90
11656;DHT22;5884;43.618;1.438;2022-10-28T11:44:07;22.90;99.90
11656;DHT22;5884;43.618;1.438;2022-10-28T11:46:51;23.00;99.90
11656;DHT22;5884;43.618;1.438;2022-10-28T11:49:59;23.10;99.90
11656;DHT22;5884;43.618;1.438;2022-10-28T11:52:48;23.30;99.90
11656;DHT22;5884;43.618;1.438;2022-10-28T11:55:31;23.30;99.90
11656;DHT22;5884;43.618;1.438;2022-10-28T11:58:10;23.30;99.90
11656;DHT22;5884;43.618;1.438;2022-10-28T12:00:59;23.30;99.90
11656;DHT22;5884;43.618;1.438;2022-10-28T12:03:46;23.20;99.90
11656;DHT22;5884;43.618;1.438;2022-10-28T12:06:30;23.10;99.90
11656;DHT22;5884;43.618;1.438;2022-10-28T12:09:11;23.20;99.90
11656;DHT22;5884;43.618;1.438;2022-10-28T12:11:57;23.20;99.90
11656;DHT22;5884;43.618;1.438;2022-10-28T12:14:42;23.20;99.90
11656;DHT22;5884;43.618;1.438;2022-10-28T12:17:18;23.10;99.90
11656;DHT22;5884;43.618;1.438;2022-10-28T12:19:53;23.00;99.90
11656;DHT22;5884;43.618;1.438;2022-10-28T12:22:28;23.00;99.90
11656;DHT22;5884;43.618;1.438;2022-10-28T12:24:58;23.10;99.90
11656;DHT22;5884;43.618;1.438;2022-10-28T12:27:31;23.10;99.90
11656;DHT22;5884;43.618;1.438;2022-10-28T12:30:04;23.10;99.90
11656;DHT22;5884;43.618;1.438;2022-10-28T12:32:40;23.20;99.90
11656;DHT22;5884;43.618;1.438;2022-10-28T12:35:15;23.30;99.90
11656;DHT22;5884;43.618;1.438;2022-10-28T12:37:47;23.40;99.90
11656;DHT22;5884;43.618;1.438;2022-10-28T12:40:19;23.50;99.90
11656;DHT22;5884;43.618;1.438;2022-10-28T12:42:53;23.50;99.90
11656;DHT22;5884;43.618;1.438;2022-10-28T12:45:23;23.50;99.90
11656;DHT22;5884;43.618;1.438;2022-10-28T12:47:56;23.60;99.90
11656;DHT22;5884;43.618;1.438;2022-10-28T12:50:28;23.50;99.90
11656;DHT22;5884;43.618;1.438;2022-10-28T12:53:15;23.60;99.90
11656;DHT22;5884;43.618;1.438;2022-10-28T12:55:50;23.50;99.90
11656;DHT22;5884;43.618;1.438;2022-10-28T12:58:24;23.50;99.90
11656;DHT22;5884;43.618;1.438;2022-10-28T13:00:59;23.50;99.90
11656;DHT22;5884;43.618;1.438;2022-10-28T13:03:28;23.50;99.90
11656;DHT22;5884;43.618;1.438;2022-10-28T13:06:06;23.50;99.90
11656;DHT22;5884;43.618;1.438;2022-10-28T13:09:03;23.50;99.90
11656;DHT22;5884;43.618;1.438;2022-10-28T13:15:13;23.50;99.90
11656;DHT22;5884;43.618;1.438;2022-10-28T13:18:22;23.50;99.90
11656;DHT22;5884;43.618;1.438;2022-10-28T13:21:03;23.50;99.90
11656;DHT22;5884;43.618;1.438;2022-10-28T13:23:38;23.40;99.90
11656;DHT22;5884;43.618;1.438;2022-10-28T13:26:19;23.50;99.90
11656;DHT22;5884;43.618;1.438;2022-10-28T13:28:50;23.50;99.90
11656;DHT22;5884;43.618;1.438;2022-10-28T13:31:20;23.50;99.90
11656;DHT22;5884;43.618;1.438;2022-10-28T13:33:51;23.60;99.90
11656;DHT22;5884;43.618;1.438;2022-10-28T13:36:29;23.60;99.90
11656;DHT22;5884;43.618;1.438;2022-10-28T13:38:59;23.60;99.90
11656;DHT22;5884;43.618;1.438;2022-10-28T13:41:33;23.70;99.90
11656;DHT22;5884;43.618;1.438;2022-10-28T13:44:23;23.80;99.90
11656;DHT22;5884;43.618;1.438;2022-10-28T13:47:21;23.90;99.90
11656;DHT22;5884;43.618;1.438;2022-10-28T13:50:31;24.00;99.90
11656;DHT22;5884;43.618;1.438;2022-10-28T13:56:35;24.20;99.90
11656;DHT22;5884;43.618;1.438;2022-10-28T13:59:18;24.30;99.90
11656;DHT22;5884;43.618;1.438;2022-10-28T14:01:55;24.30;99.90
11656;DHT22;5884;43.618;1.438;2022-10-28T14:04:28;24.20;99.90
11656;DHT22;5884;43.618;1.438;2022-10-28T14:07:16;24.10;99.90
11656;DHT22;5884;43.618;1.438;2022-10-28T14:09:47;24.00;99.90
11656;DHT22;5884;43.618;1.438;2022-10-28T14:12:23;24.00;99.90
11656;DHT22;5884;43.618;1.438;2022-10-28T14:15:01;24.00;99.90
11656;DHT22;5884;43.618;1.438;2022-10-28T14:17:36;24.00;99.90
11656;DHT22;5884;43.618;1.438;2022-10-28T14:20:23;24.00;99.90
11656;DHT22;5884;43.618;1.438;2022-10-28T14:22:54;23.80;99.90
11656;DHT22;5884;43.618;1.438;2022-10-28T14:25:57;23.80;99.90
11656;DHT22;5884;43.618;1.438;2022-10-28T14:31:38;23.70;99.90
11656;DHT22;5884;43.618;1.438;2022-10-28T14:34:38;23.60;99.90
11656;DHT22;5884;43.618;1.438;2022-10-28T14:37:25;23.50;99.90
11656;DHT22;5884;43.618;1.438;2022-10-28T14:40:22;23.50;99.90
11656;DHT22;5884;43.618;1.438;2022-10-28T14:43:10;23.50;99.90
11656;DHT22;5884;43.618;1.438;2022-10-28T14:45:55;23.40;99.90
11656;DHT22;5884;43.618;1.438;2022-10-28T14:48:52;23.40;99.90
11656;DHT22;5884;43.618;1.438;2022-10-28T14:51:23;23.40;99.90
11656;DHT22;5884;43.618;1.438;2022-10-28T14:53:56;23.40;99.90
11656;DHT22;5884;43.618;1.438;2022-10-28T14:56:26;23.40;99.90
11656;DHT22;5884;43.618;1.438;2022-10-28T14:58:58;23.30;99.90
11656;DHT22;5884;43.618;1.438;2022-10-28T15:01:36;23.30;99.90
11656;DHT22;5884;43.618;1.438;2022-10-28T15:04:17;23.30;99.90
11656;DHT22;5884;43.618;1.438;2022-10-28T15:06:49;23.20;99.90
11656;DHT22;5884;43.618;1.438;2022-10-28T15:09:20;23.20;99.90
11656;DHT22;5884;43.618;1.438;2022-10-28T15:11:51;23.20;99.90
11656;DHT22;5884;43.618;1.438;2022-10-28T15:14:29;23.10;99.90
11656;DHT22;5884;43.618;1.438;2022-10-28T15:17:01;23.10;99.90
11656;DHT22;5884;43.618;1.438;2022-10-28T15:19:33;23.00;99.90
11656;DHT22;5884;43.618;1.438;2022-10-28T15:22:02;23.10;99.90
11656;DHT22;5884;43.618;1.438;2022-10-28T15:24:38;23.00;99.90
11656;DHT22;5884;43.618;1.438;2022-10-28T15:27:10;23.00;99.90
11656;DHT22;5884;43.618;1.438;2022-10-28T15:29:41;23.00;99.90
11656;DHT22;5884;43.618;1.438;2022-10-28T15:32:14;23.00;99.90
11656;DHT22;5884;43.618;1.438;2022-10-28T15:34:51;22.90;99.90
11656;DHT22;5884;43.618;1.438;2022-10-28T15:37:20;22.90;99.90
11656;DHT22;5884;43.618;1.438;2022-10-28T15:39:50;22.80;99.90
11656;DHT22;5884;43.618;1.438;2022-10-28T15:42:36;22.80;99.90
11656;DHT22;5884;43.618;1.438;2022-10-28T15:45:15;22.70;99.90
11656;DHT22;5884;43.618;1.438;2022-10-28T15:47:45;22.70;99.90
11656;DHT22;5884;43.618;1.438;2022-10-28T15:50:23;22.70;99.90
11656;DHT22;5884;43.618;1.438;2022-10-28T15:53:19;22.70;99.90
11656;DHT22;5884;43.618;1.438;2022-10-28T15:56:18;22.70;99.90
11656;DHT22;5884;43.618;1.438;2022-10-28T15:58:59;22.70;99.90
11656;DHT22;5884;43.618;1.438;2022-10-28T16:01:36;22.60;99.90
11656;DHT22;5884;43.618;1.438;2022-10-28T16:04:04;22.60;99.90
11656;DHT22;5884;43.618;1.438;2022-10-28T16:06:33;22.60;99.90
11656;DHT22;5884;43.618;1.438;2022-10-28T16:09:15;22.60;99.90
11656;DHT22;5884;43.618;1.438;2022-10-28T16:11:47;22.50;99.90
11656;DHT22;5884;43.618;1.438;2022-10-28T16:14:30;22.40;99.90
11656;DHT22;5884;43.618;1.438;2022-10-28T16:17:04;22.30;99.90
11656;DHT22;5884;43.618;1.438;2022-10-28T16:19:36;22.30;99.90
11656;DHT22;5884;43.618;1.438;2022-10-28T16:22:05;22.20;99.90
11656;DHT22;5884;43.618;1.438;2022-10-28T16:24:32;22.20;99.90
11656;DHT22;5884;43.618;1.438;2022-10-28T16:27:18;22.20;99.90
11656;DHT22;5884;43.618;1.438;2022-10-28T16:29:46;22.10;99.90
11656;DHT22;5884;43.618;1.438;2022-10-28T16:32:16;22.10;99.90
11656;DHT22;5884;43.618;1.438;2022-10-28T16:34:45;22.00;99.90
11656;DHT22;5884;43.618;1.438;2022-10-28T16:37:20;21.90;99.90
11656;DHT22;5884;43.618;1.438;2022-10-28T16:39:48;21.90;99.90
11656;DHT22;5884;43.618;1.438;2022-10-28T16:42:17;21.80;99.90
11656;DHT22;5884;43.618;1.438;2022-10-28T16:44:46;21.70;99.90
11656;DHT22;5884;43.618;1.438;2022-10-28T16:47:14;21.70;99.90
11656;DHT22;5884;43.618;1.438;2022-10-28T16:49:43;21.60;99.90
11656;DHT22;5884;43.618;1.438;2022-10-28T16:52:15;21.50;99.90
11656;DHT22;5884;43.618;1.438;2022-10-28T16:54:44;21.40;99.90
11656;DHT22;5884;43.618;1.438;2022-10-28T16:57:12;21.30;99.90
11656;DHT22;5884;43.618;1.438;2022-10-28T16:59:40;21.30;99.90
11656;DHT22;5884;43.618;1.438;2022-10-28T17:02:13;21.30;99.90
11656;DHT22;5884;43.618;1.438;2022-10-28T17:04:41;21.20;99.90
11656;DHT22;5884;43.618;1.438;2022-10-28T17:07:08;21.10;99.90
11656;DHT22;5884;43.618;1.438;2022-10-28T17:09:39;21.10;99.90
11656;DHT22;5884;43.618;1.438;2022-10-28T17:12:07;21.10;99.90
11656;DHT22;5884;43.618;1.438;2022-10-28T17:14:39;21.10;99.90
11656;DHT22;5884;43.618;1.438;2022-10-28T17:17:06;21.00;99.90
11656;DHT22;5884;43.618;1.438;2022-10-28T17:19:34;20.90;99.90
11656;DHT22;5884;43.618;1.438;2022-10-28T17:22:02;20.90;99.90
11656;DHT22;5884;43.618;1.438;2022-10-28T17:24:29;20.90;99.90
11656;DHT22;5884;43.618;1.438;2022-10-28T17:26:56;20.90;99.90
11656;DHT22;5884;43.618;1.438;2022-10-28T17:29:24;20.80;99.90
11656;DHT22;5884;43.618;1.438;2022-10-28T17:31:53;20.80;99.90
11656;DHT22;5884;43.618;1.438;2022-10-28T17:34:20;20.70;99.90
11656;DHT22;5884;43.618;1.438;2022-10-28T17:36:47;20.70;99.90
11656;DHT22;5884;43.618;1.438;2022-10-28T17:39:14;20.70;99.90
11656;DHT22;5884;43.618;1.438;2022-10-28T17:41:41;20.60;99.90
11656;DHT22;5884;43.618;1.438;2022-10-28T17:44:09;20.50;99.90
11656;DHT22;5884;43.618;1.438;2022-10-28T17:46:36;20.50;99.90
11656;DHT22;5884;43.618;1.438;2022-10-28T17:49:04;20.50;99.90
11656;DHT22;5884;43.618;1.438;2022-10-28T17:51:33;20.40;99.90
11656;DHT22;5884;43.618;1.438;2022-10-28T17:54:00;20.40;99.90
11656;DHT22;5884;43.618;1.438;2022-10-28T17:56:29;20.40;99.90
11656;DHT22;5884;43.618;1.438;2022-10-28T17:58:57;20.40;99.90
11656;DHT22;5884;43.618;1.438;2022-10-28T18:01:26;20.40;99.90
11656;DHT22;5884;43.618;1.438;2022-10-28T18:03:53;20.30;99.90
11656;DHT22;5884;43.618;1.438;2022-10-28T18:06:22;20.20;99.90
11656;DHT22;5884;43.618;1.438;2022-10-28T18:08:50;20.20;99.90
11656;DHT22;5884;43.618;1.438;2022-10-28T18:11:18;20.20;99.90
11656;DHT22;5884;43.618;1.438;2022-10-28T18:13:47;20.20;99.90
11656;DHT22;5884;43.618;1.438;2022-10-28T18:16:19;20.10;99.90
11656;DHT22;5884;43.618;1.438;2022-10-28T18:18:47;20.00;99.90
11656;DHT22;5884;43.618;1.438;2022-10-28T18:21:16;20.00;99.90
11656;DHT22;5884;43.618;1.438;2022-10-28T18:23:49;20.00;99.90
11656;DHT22;5884;43.618;1.438;2022-10-28T18:26:18;19.90;99.90
11656;DHT22;5884;43.618;1.438;2022-10-28T18:28:46;19.90;99.90
11656;DHT22;5884;43.618;1.438;2022-10-28T18:31:15;19.80;99.90
11656;DHT22;5884;43.618;1.438;2022-10-28T18:33:44;19.80;99.90
11656;DHT22;5884;43.618;1.438;2022-10-28T18:36:14;19.80;99.90
11656;DHT22;5884;43.618;1.438;2022-10-28T18:38:43;19.70;99.90
11656;DHT22;5884;43.618;1.438;2022-10-28T18:41:12;19.70;99.90
11656;DHT22;5884;43.618;1.438;2022-10-28T18:43:40;19.70;99.90
11656;DHT22;5884;43.618;1.438;2022-10-28T18:46:08;19.70;99.90
11656;DHT22;5884;43.618;1.438;2022-10-28T18:48:35;19.60;99.90
11656;DHT22;5884;43.618;1.438;2022-10-28T18:51:05;19.60;99.90
11656;DHT22;5884;43.618;1.438;2022-10-28T18:53:35;19.60;99.90
11656;DHT22;5884;43.618;1.438;2022-10-28T18:56:05;19.60;99.90
11656;DHT22;5884;43.618;1.438;2022-10-28T18:58:33;19.60;99.90
11656;DHT22;5884;43.618;1.438;2022-10-28T19:01:05;19.60;99.90
11656;DHT22;5884;43.618;1.438;2022-10-28T19:03:33;19.50;99.90
11656;DHT22;5884;43.618;1.438;2022-10-28T19:06:01;19.50;99.90
11656;DHT22;5884;43.618;1.438;2022-10-28T19:08:30;19.60;99.90
11656;DHT22;5884;43.618;1.438;2022-10-28T19:10:58;19.50;99.90
11656;DHT22;5884;43.618;1.438;2022-10-28T19:13:27;19.50;99.90
11656;DHT22;5884;43.618;1.438;2022-10-28T19:15:55;19.50;99.90
11656;DHT22;5884;43.618;1.438;2022-10-28T19:18:22;19.40;99.90
11656;DHT22;5884;43.618;1.438;2022-10-28T19:20:49;19.50;99.90
11656;DHT22;5884;43.618;1.438;2022-10-28T19:23:16;19.40;99.90
11656;DHT22;5884;43.618;1.438;2022-10-28T19:25:52;19.50;99.90
11656;DHT22;5884;43.618;1.438;2022-10-28T19:28:21;19.50;99.90
11656;DHT22;5884;43.618;1.438;2022-10-28T19:30:57;19.40;99.90
11656;DHT22;5884;43.618;1.438;2022-10-28T19:33:25;19.40;99.90
11656;DHT22;5884;43.618;1.438;2022-10-28T19:35:58;19.40;99.90
11656;DHT22;5884;43.618;1.438;2022-10-28T19:38:29;19.30;99.90
11656;DHT22;5884;43.618;1.438;2022-10-28T19:41:01;19.30;99.90
11656;DHT22;5884;43.618;1.438;2022-10-28T19:43:30;19.30;99.90
11656;DHT22;5884;43.618;1.438;2022-10-28T19:46:07;19.30;99.90
11656;DHT22;5884;43.618;1.438;2022-10-28T19:48:36;19.30;99.90
11656;DHT22;5884;43.618;1.438;2022-10-28T19:51:05;19.30;99.90
11656;DHT22;5884;43.618;1.438;2022-10-28T19:53:32;19.20;99.90
11656;DHT22;5884;43.618;1.438;2022-10-28T19:56:01;19.20;99.90
11656;DHT22;5884;43.618;1.438;2022-10-28T19:58:29;19.20;99.90
11656;DHT22;5884;43.618;1.438;2022-10-28T20:00:59;19.20;99.90
11656;DHT22;5884;43.618;1.438;2022-10-28T20:03:28;19.30;99.90
11656;DHT22;5884;43.618;1.438;2022-10-28T20:06:04;19.20;99.90
11656;DHT22;5884;43.618;1.438;2022-10-28T20:08:33;19.20;99.90
11656;DHT22;5884;43.618;1.438;2022-10-28T20:11:02;19.20;99.90
11656;DHT22;5884;43.618;1.438;2022-10-28T20:13:30;19.20;99.90
11656;DHT22;5884;43.618;1.438;2022-10-28T20:16:00;19.10;99.90
11656;DHT22;5884;43.618;1.438;2022-10-28T20:18:30;19.10;99.90
11656;DHT22;5884;43.618;1.438;2022-10-28T20:21:05;19.10;99.90
11656;DHT22;5884;43.618;1.438;2022-10-28T20:23:33;19.10;99.90
11656;DHT22;5884;43.618;1.438;2022-10-28T20:26:01;19.10;99.90
11656;DHT22;5884;43.618;1.438;2022-10-28T20:28:29;19.00;99.90
11656;DHT22;5884;43.618;1.438;2022-10-28T20:30:58;19.00;99.90
11656;DHT22;5884;43.618;1.438;2022-10-28T20:33:27;19.00;99.90
11656;DHT22;5884;43.618;1.438;2022-10-28T20:35:56;19.00;99.90
11656;DHT22;5884;43.618;1.438;2022-10-28T20:38:24;19.00;99.90
11656;DHT22;5884;43.618;1.438;2022-10-28T20:40:53;19.00;99.90
11656;DHT22;5884;43.618;1.438;2022-10-28T20:43:23;19.00;99.90
11656;DHT22;5884;43.618;1.438;2022-10-28T20:45:52;19.00;99.90
11656;DHT22;5884;43.618;1.438;2022-10-28T20:48:20;19.00;99.90
11656;DHT22;5884;43.618;1.438;2022-10-28T20:50:49;19.00;99.90
11656;DHT22;5884;43.618;1.438;2022-10-28T20:53:19;19.00;99.90
11656;DHT22;5884;43.618;1.438;2022-10-28T20:55:49;18.90;99.90
11656;DHT22;5884;43.618;1.438;2022-10-28T20:58:17;19.00;99.90
